sensor_id;sensor_type;location;lat;lon;timestamp;P1;durP1;ratioP1;P2;durP2;ratioP2
43823;SDS011;29470;53.550;9.926;2022-09-09T00:04:38;42.55;;;21.63;;
43823;SDS011;29470;53.550;9.926;2022-09-09T00:09:45;38.83;;;21.80;;
43823;SDS011;29470;53.550;9.926;2022-09-09T00:14:53;39.80;;;21.67;;
43823;SDS011;29470;53.550;9.926;2022-09-09T00:19:59;40.35;;;21.35;;
43823;SDS011;29470;53.550;9.926;2022-09-09T00:25:14;46.25;;;23.13;;
43823;SDS011;29470;53.550;9.926;2022-09-09T00:30:26;41.88;;;21.77;;
43823;SDS011;29470;53.550;9.926;2022-09-09T00:35:35;40.70;;;22.50;;
43823;SDS011;29470;53.550;9.926;2022-09-09T00:40:45;43.27;;;23.07;;
43823;SDS011;29470;53.550;9.926;2022-09-09T00:51:24;44.10;;;23.42;;
43823;SDS011;29470;53.550;9.926;2022-09-09T00:56:34;46.35;;;23.40;;
43823;SDS011;29470;53.550;9.926;2022-09-09T01:01:44;45.38;;;24.30;;
43823;SDS011;29470;53.550;9.926;2022-09-09T01:06:48;50.88;;;25.15;;
43823;SDS011;29470;53.550;9.926;2022-09-09T01:12:01;47.80;;;24.30;;
43823;SDS011;29470;53.550;9.926;2022-09-09T01:17:13;44.38;;;22.67;;
43823;SDS011;29470;53.550;9.926;2022-09-09T01:22:28;41.50;;;22.65;;
43823;SDS011;29470;53.550;9.926;2022-09-09T01:27:41;43.38;;;22.52;;
43823;SDS011;29470;53.550;9.926;2022-09-09T01:32:47;46.70;;;23.27;;
43823;SDS011;29470;53.550;9.926;2022-09-09T01:37:52;46.65;;;23.63;;
43823;SDS011;29470;53.550;9.926;2022-09-09T01:42:59;49.17;;;24.90;;
43823;SDS011;29470;53.550;9.926;2022-09-09T01:48:04;53.13;;;24.30;;
43823;SDS011;29470;53.550;9.926;2022-09-09T01:53:16;48.17;;;23.40;;
43823;SDS011;29470;53.550;9.926;2022-09-09T01:58:25;48.60;;;23.38;;
43823;SDS011;29470;53.550;9.926;2022-09-09T02:03:36;50.15;;;23.05;;
43823;SDS011;29470;53.550;9.926;2022-09-09T02:08:48;49.70;;;23.50;;
43823;SDS011;29470;53.550;9.926;2022-09-09T02:13:56;47.58;;;23.25;;
43823;SDS011;29470;53.550;9.926;2022-09-09T02:19:04;45.35;;;23.05;;
43823;SDS011;29470;53.550;9.926;2022-09-09T02:24:29;48.47;;;23.25;;
43823;SDS011;29470;53.550;9.926;2022-09-09T02:29:51;47.10;;;23.85;;
43823;SDS011;29470;53.550;9.926;2022-09-09T02:35:08;44.63;;;21.67;;
43823;SDS011;29470;53.550;9.926;2022-09-09T02:40:15;47.28;;;22.58;;
43823;SDS011;29470;53.550;9.926;2022-09-09T02:45:31;45.83;;;22.42;;
43823;SDS011;29470;53.550;9.926;2022-09-09T02:50:40;45.38;;;21.08;;
43823;SDS011;29470;53.550;9.926;2022-09-09T02:55:52;41.95;;;21.63;;
43823;SDS011;29470;53.550;9.926;2022-09-09T03:01:01;35.95;;;19.63;;
43823;SDS011;29470;53.550;9.926;2022-09-09T03:06:05;37.65;;;19.33;;
43823;SDS011;29470;53.550;9.926;2022-09-09T03:11:08;37.78;;;19.75;;
43823;SDS011;29470;53.550;9.926;2022-09-09T03:16:13;36.03;;;19.42;;
43823;SDS011;29470;53.550;9.926;2022-09-09T03:21:20;38.30;;;19.85;;
43823;SDS011;29470;53.550;9.926;2022-09-09T03:26:24;33.10;;;17.60;;
43823;SDS011;29470;53.550;9.926;2022-09-09T03:31:28;31.75;;;17.77;;
43823;SDS011;29470;53.550;9.926;2022-09-09T03:36:33;34.85;;;18.25;;
43823;SDS011;29470;53.550;9.926;2022-09-09T03:41:36;34.22;;;18.30;;
43823;SDS011;29470;53.550;9.926;2022-09-09T03:46:42;33.85;;;17.92;;
43823;SDS011;29470;53.550;9.926;2022-09-09T03:51:45;33.08;;;18.85;;
43823;SDS011;29470;53.550;9.926;2022-09-09T03:56:48;31.05;;;17.13;;
43823;SDS011;29470;53.550;9.926;2022-09-09T04:01:53;32.33;;;17.50;;
43823;SDS011;29470;53.550;9.926;2022-09-09T04:06:56;31.98;;;17.35;;
43823;SDS011;29470;53.550;9.926;2022-09-09T04:11:59;29.15;;;17.08;;
43823;SDS011;29470;53.550;9.926;2022-09-09T04:17:05;32.40;;;17.45;;
43823;SDS011;29470;53.550;9.926;2022-09-09T04:22:08;29.48;;;17.20;;
43823;SDS011;29470;53.550;9.926;2022-09-09T04:27:11;31.65;;;17.10;;
43823;SDS011;29470;53.550;9.926;2022-09-09T04:32:16;29.20;;;17.48;;
43823;SDS011;29470;53.550;9.926;2022-09-09T04:37:20;29.63;;;17.40;;
43823;SDS011;29470;53.550;9.926;2022-09-09T04:42:23;30.17;;;16.75;;
43823;SDS011;29470;53.550;9.926;2022-09-09T04:47:28;28.17;;;15.75;;
43823;SDS011;29470;53.550;9.926;2022-09-09T04:52:33;24.17;;;15.20;;
43823;SDS011;29470;53.550;9.926;2022-09-09T04:57:36;25.42;;;14.73;;
43823;SDS011;29470;53.550;9.926;2022-09-09T05:02:41;23.13;;;13.85;;
43823;SDS011;29470;53.550;9.926;2022-09-09T05:07:44;21.60;;;12.85;;
43823;SDS011;29470;53.550;9.926;2022-09-09T05:12:51;21.90;;;12.85;;
43823;SDS011;29470;53.550;9.926;2022-09-09T05:18:00;23.40;;;12.55;;
43823;SDS011;29470;53.550;9.926;2022-09-09T05:23:05;22.43;;;13.70;;
43823;SDS011;29470;53.550;9.926;2022-09-09T05:28:08;20.58;;;13.07;;
43823;SDS011;29470;53.550;9.926;2022-09-09T05:33:14;21.20;;;12.75;;
43823;SDS011;29470;53.550;9.926;2022-09-09T05:38:17;20.77;;;12.00;;
43823;SDS011;29470;53.550;9.926;2022-09-09T05:43:21;20.27;;;12.05;;
43823;SDS011;29470;53.550;9.926;2022-09-09T05:48:27;19.30;;;11.48;;
43823;SDS011;29470;53.550;9.926;2022-09-09T05:53:31;16.88;;;10.43;;
43823;SDS011;29470;53.550;9.926;2022-09-09T05:58:35;15.05;;;9.77;;
43823;SDS011;29470;53.550;9.926;2022-09-09T06:03:44;15.20;;;9.32;;
43823;SDS011;29470;53.550;9.926;2022-09-09T06:08:50;14.50;;;9.10;;
43823;SDS011;29470;53.550;9.926;2022-09-09T06:13:54;14.43;;;9.63;;
43823;SDS011;29470;53.550;9.926;2022-09-09T06:19:00;14.93;;;8.57;;
43823;SDS011;29470;53.550;9.926;2022-09-09T06:24:04;12.95;;;8.55;;
43823;SDS011;29470;53.550;9.926;2022-09-09T06:29:09;11.50;;;7.20;;
43823;SDS011;29470;53.550;9.926;2022-09-09T06:34:14;11.25;;;7.50;;
43823;SDS011;29470;53.550;9.926;2022-09-09T06:39:21;11.02;;;6.05;;
43823;SDS011;29470;53.550;9.926;2022-09-09T06:44:24;9.23;;;6.43;;
43823;SDS011;29470;53.550;9.926;2022-09-09T06:49:34;9.05;;;6.00;;
43823;SDS011;29470;53.550;9.926;2022-09-09T06:54:41;10.93;;;5.55;;
43823;SDS011;29470;53.550;9.926;2022-09-09T06:59:44;7.88;;;4.82;;
43823;SDS011;29470;53.550;9.926;2022-09-09T07:04:48;7.82;;;4.43;;
43823;SDS011;29470;53.550;9.926;2022-09-09T07:09:52;5.32;;;3.35;;
43823;SDS011;29470;53.550;9.926;2022-09-09T07:14:55;6.30;;;3.38;;
43823;SDS011;29470;53.550;9.926;2022-09-09T07:20:00;7.30;;;3.47;;
43823;SDS011;29470;53.550;9.926;2022-09-09T07:25:06;5.55;;;3.70;;
43823;SDS011;29470;53.550;9.926;2022-09-09T07:30:11;5.53;;;3.20;;
43823;SDS011;29470;53.550;9.926;2022-09-09T07:35:25;4.28;;;2.67;;
43823;SDS011;29470;53.550;9.926;2022-09-09T07:40:28;8.93;;;3.00;;
43823;SDS011;29470;53.550;9.926;2022-09-09T07:45:33;6.80;;;3.47;;
43823;SDS011;29470;53.550;9.926;2022-09-09T07:50:38;4.85;;;3.10;;
43823;SDS011;29470;53.550;9.926;2022-09-09T07:55:42;5.68;;;3.50;;
43823;SDS011;29470;53.550;9.926;2022-09-09T08:00:45;7.25;;;3.53;;
43823;SDS011;29470;53.550;9.926;2022-09-09T08:05:50;5.70;;;3.28;;
43823;SDS011;29470;53.550;9.926;2022-09-09T08:10:53;6.22;;;3.17;;
43823;SDS011;29470;53.550;9.926;2022-09-09T08:16:08;4.97;;;2.45;;
43823;SDS011;29470;53.550;9.926;2022-09-09T08:21:14;4.85;;;2.75;;
43823;SDS011;29470;53.550;9.926;2022-09-09T08:26:19;5.95;;;3.10;;
43823;SDS011;29470;53.550;9.926;2022-09-09T08:31:25;4.38;;;2.63;;
43823;SDS011;29470;53.550;9.926;2022-09-09T08:36:33;5.55;;;2.42;;
43823;SDS011;29470;53.550;9.926;2022-09-09T08:41:40;4.38;;;2.90;;
43823;SDS011;29470;53.550;9.926;2022-09-09T08:46:57;5.47;;;2.30;;
43823;SDS011;29470;53.550;9.926;2022-09-09T08:52:17;3.78;;;2.20;;
43823;SDS011;29470;53.550;9.926;2022-09-09T08:57:25;2.67;;;1.90;;
43823;SDS011;29470;53.550;9.926;2022-09-09T09:02:31;4.35;;;2.00;;
43823;SDS011;29470;53.550;9.926;2022-09-09T09:07:45;5.93;;;2.08;;
43823;SDS011;29470;53.550;9.926;2022-09-09T09:13:02;4.90;;;2.50;;
43823;SDS011;29470;53.550;9.926;2022-09-09T09:18:07;5.72;;;2.45;;
43823;SDS011;29470;53.550;9.926;2022-09-09T09:23:18;4.03;;;1.85;;
43823;SDS011;29470;53.550;9.926;2022-09-09T09:28:27;5.70;;;2.28;;
43823;SDS011;29470;53.550;9.926;2022-09-09T09:33:39;3.60;;;1.92;;
43823;SDS011;29470;53.550;9.926;2022-09-09T09:38:54;4.80;;;2.00;;
43823;SDS011;29470;53.550;9.926;2022-09-09T09:44:24;2.70;;;1.20;;
43823;SDS011;29470;53.550;9.926;2022-09-09T09:49:29;3.20;;;1.30;;
43823;SDS011;29470;53.550;9.926;2022-09-09T09:54:38;5.45;;;1.80;;
43823;SDS011;29470;53.550;9.926;2022-09-09T09:59:44;2.97;;;1.67;;
43823;SDS011;29470;53.550;9.926;2022-09-09T10:05:01;2.42;;;1.30;;
43823;SDS011;29470;53.550;9.926;2022-09-09T10:10:10;2.58;;;1.30;;
43823;SDS011;29470;53.550;9.926;2022-09-09T10:15:22;3.60;;;2.00;;
43823;SDS011;29470;53.550;9.926;2022-09-09T10:20:35;4.55;;;1.63;;
43823;SDS011;29470;53.550;9.926;2022-09-09T10:25:57;6.88;;;1.98;;
43823;SDS011;29470;53.550;9.926;2022-09-09T10:31:11;4.15;;;2.00;;
43823;SDS011;29470;53.550;9.926;2022-09-09T10:36:21;5.53;;;1.90;;
43823;SDS011;29470;53.550;9.926;2022-09-09T10:41:34;4.40;;;1.63;;
43823;SDS011;29470;53.550;9.926;2022-09-09T10:46:50;3.92;;;1.50;;
43823;SDS011;29470;53.550;9.926;2022-09-09T10:52:04;5.10;;;1.67;;
43823;SDS011;29470;53.550;9.926;2022-09-09T10:57:21;11.13;;;2.80;;
43823;SDS011;29470;53.550;9.926;2022-09-09T11:02:31;3.90;;;2.03;;
43823;SDS011;29470;53.550;9.926;2022-09-09T11:07:37;5.40;;;1.90;;
43823;SDS011;29470;53.550;9.926;2022-09-09T11:12:46;5.15;;;2.60;;
43823;SDS011;29470;53.550;9.926;2022-09-09T11:17:53;7.80;;;3.00;;
43823;SDS011;29470;53.550;9.926;2022-09-09T11:23:00;3.77;;;1.70;;
43823;SDS011;29470;53.550;9.926;2022-09-09T11:33:37;4.43;;;1.58;;
43823;SDS011;29470;53.550;9.926;2022-09-09T11:39:00;2.97;;;1.25;;
43823;SDS011;29470;53.550;9.926;2022-09-09T11:44:13;4.95;;;1.35;;
43823;SDS011;29470;53.550;9.926;2022-09-09T11:49:25;3.80;;;2.00;;
43823;SDS011;29470;53.550;9.926;2022-09-09T11:54:30;5.38;;;2.33;;
43823;SDS011;29470;53.550;9.926;2022-09-09T11:59:37;3.72;;;1.90;;
43823;SDS011;29470;53.550;9.926;2022-09-09T12:04:41;2.92;;;1.73;;
43823;SDS011;29470;53.550;9.926;2022-09-09T12:09:47;4.45;;;1.90;;
43823;SDS011;29470;53.550;9.926;2022-09-09T12:14:58;4.03;;;1.50;;
43823;SDS011;29470;53.550;9.926;2022-09-09T12:20:18;4.18;;;1.80;;
43823;SDS011;29470;53.550;9.926;2022-09-09T12:25:27;4.88;;;2.10;;
43823;SDS011;29470;53.550;9.926;2022-09-09T12:30:54;6.05;;;1.95;;
43823;SDS011;29470;53.550;9.926;2022-09-09T12:36:01;6.63;;;2.05;;
43823;SDS011;29470;53.550;9.926;2022-09-09T12:41:15;9.52;;;2.03;;
43823;SDS011;29470;53.550;9.926;2022-09-09T12:46:26;10.43;;;3.90;;
43823;SDS011;29470;53.550;9.926;2022-09-09T12:51:45;4.53;;;2.20;;
43823;SDS011;29470;53.550;9.926;2022-09-09T13:02:29;3.35;;;2.00;;
43823;SDS011;29470;53.550;9.926;2022-09-09T13:07:41;5.40;;;2.47;;
43823;SDS011;29470;53.550;9.926;2022-09-09T13:12:44;5.00;;;2.92;;
43823;SDS011;29470;53.550;9.926;2022-09-09T13:18:03;5.18;;;3.35;;
43823;SDS011;29470;53.550;9.926;2022-09-09T13:23:13;6.95;;;2.55;;
43823;SDS011;29470;53.550;9.926;2022-09-09T13:28:22;8.17;;;2.73;;
43823;SDS011;29470;53.550;9.926;2022-09-09T13:33:31;9.27;;;3.15;;
43823;SDS011;29470;53.550;9.926;2022-09-09T13:38:36;8.48;;;4.47;;
43823;SDS011;29470;53.550;9.926;2022-09-09T13:43:42;5.50;;;2.53;;
43823;SDS011;29470;53.550;9.926;2022-09-09T13:48:54;8.73;;;2.85;;
43823;SDS011;29470;53.550;9.926;2022-09-09T13:53:58;7.45;;;3.70;;
43823;SDS011;29470;53.550;9.926;2022-09-09T13:59:02;6.82;;;3.65;;
43823;SDS011;29470;53.550;9.926;2022-09-09T14:04:12;6.97;;;3.80;;
43823;SDS011;29470;53.550;9.926;2022-09-09T14:09:16;5.82;;;3.50;;
43823;SDS011;29470;53.550;9.926;2022-09-09T14:14:20;8.55;;;4.95;;
43823;SDS011;29470;53.550;9.926;2022-09-09T14:19:26;8.50;;;4.50;;
43823;SDS011;29470;53.550;9.926;2022-09-09T14:24:29;9.05;;;5.38;;
43823;SDS011;29470;53.550;9.926;2022-09-09T14:29:32;6.90;;;4.63;;
43823;SDS011;29470;53.550;9.926;2022-09-09T14:34:36;5.20;;;3.60;;
43823;SDS011;29470;53.550;9.926;2022-09-09T14:39:39;4.45;;;2.50;;
43823;SDS011;29470;53.550;9.926;2022-09-09T14:44:45;5.22;;;2.63;;
43823;SDS011;29470;53.550;9.926;2022-09-09T14:49:50;4.43;;;2.70;;
43823;SDS011;29470;53.550;9.926;2022-09-09T14:54:53;4.30;;;2.80;;
43823;SDS011;29470;53.550;9.926;2022-09-09T14:59:56;5.22;;;2.50;;
43823;SDS011;29470;53.550;9.926;2022-09-09T15:05:00;5.72;;;2.90;;
43823;SDS011;29470;53.550;9.926;2022-09-09T15:10:05;5.45;;;2.92;;
43823;SDS011;29470;53.550;9.926;2022-09-09T15:15:09;4.80;;;2.97;;
43823;SDS011;29470;53.550;9.926;2022-09-09T15:20:14;6.18;;;2.33;;
43823;SDS011;29470;53.550;9.926;2022-09-09T15:25:18;7.85;;;4.00;;
43823;SDS011;29470;53.550;9.926;2022-09-09T15:30:20;3.83;;;2.13;;
43823;SDS011;29470;53.550;9.926;2022-09-09T15:35:24;5.53;;;2.83;;
43823;SDS011;29470;53.550;9.926;2022-09-09T15:40:27;5.97;;;3.00;;
43823;SDS011;29470;53.550;9.926;2022-09-09T15:45:31;4.32;;;2.40;;
43823;SDS011;29470;53.550;9.926;2022-09-09T15:50:36;6.00;;;2.90;;
43823;SDS011;29470;53.550;9.926;2022-09-09T15:55:38;4.13;;;2.17;;
43823;SDS011;29470;53.550;9.926;2022-09-09T16:00:44;3.65;;;2.10;;
43823;SDS011;29470;53.550;9.926;2022-09-09T16:05:52;3.05;;;1.83;;
43823;SDS011;29470;53.550;9.926;2022-09-09T16:10:54;3.03;;;1.75;;
43823;SDS011;29470;53.550;9.926;2022-09-09T16:15:57;2.72;;;1.45;;
43823;SDS011;29470;53.550;9.926;2022-09-09T16:21:02;3.67;;;1.95;;
43823;SDS011;29470;53.550;9.926;2022-09-09T16:26:06;3.63;;;1.85;;
43823;SDS011;29470;53.550;9.926;2022-09-09T16:31:10;4.15;;;2.40;;
43823;SDS011;29470;53.550;9.926;2022-09-09T16:36:18;3.13;;;1.70;;
43823;SDS011;29470;53.550;9.926;2022-09-09T16:41:22;3.03;;;1.60;;
43823;SDS011;29470;53.550;9.926;2022-09-09T16:46:25;3.05;;;1.88;;
43823;SDS011;29470;53.550;9.926;2022-09-09T16:51:32;4.28;;;1.85;;
43823;SDS011;29470;53.550;9.926;2022-09-09T16:56:36;3.20;;;1.50;;
43823;SDS011;29470;53.550;9.926;2022-09-09T17:01:43;3.05;;;1.50;;
43823;SDS011;29470;53.550;9.926;2022-09-09T17:06:49;2.97;;;1.70;;
43823;SDS011;29470;53.550;9.926;2022-09-09T17:11:53;4.15;;;2.05;;
43823;SDS011;29470;53.550;9.926;2022-09-09T17:16:56;2.90;;;1.80;;
43823;SDS011;29470;53.550;9.926;2022-09-09T17:22:20;3.97;;;1.83;;
43823;SDS011;29470;53.550;9.926;2022-09-09T17:27:24;2.80;;;1.70;;
43823;SDS011;29470;53.550;9.926;2022-09-09T17:32:27;3.60;;;2.00;;
43823;SDS011;29470;53.550;9.926;2022-09-09T17:37:31;6.13;;;3.20;;
43823;SDS011;29470;53.550;9.926;2022-09-09T17:42:34;6.18;;;3.75;;
43823;SDS011;29470;53.550;9.926;2022-09-09T17:47:37;4.68;;;3.08;;
43823;SDS011;29470;53.550;9.926;2022-09-09T17:52:42;3.88;;;3.03;;
43823;SDS011;29470;53.550;9.926;2022-09-09T17:57:45;8.30;;;3.70;;
43823;SDS011;29470;53.550;9.926;2022-09-09T18:02:48;6.45;;;3.40;;
43823;SDS011;29470;53.550;9.926;2022-09-09T18:07:52;6.22;;;3.53;;
43823;SDS011;29470;53.550;9.926;2022-09-09T18:12:55;8.30;;;4.28;;
43823;SDS011;29470;53.550;9.926;2022-09-09T18:17:58;7.40;;;3.88;;
43823;SDS011;29470;53.550;9.926;2022-09-09T18:23:08;7.95;;;4.30;;
43823;SDS011;29470;53.550;9.926;2022-09-09T18:28:11;7.30;;;4.40;;
43823;SDS011;29470;53.550;9.926;2022-09-09T18:33:14;7.80;;;4.35;;
43823;SDS011;29470;53.550;9.926;2022-09-09T18:38:18;8.05;;;4.50;;
43823;SDS011;29470;53.550;9.926;2022-09-09T18:43:21;7.13;;;5.00;;
43823;SDS011;29470;53.550;9.926;2022-09-09T18:48:24;8.13;;;5.10;;
43823;SDS011;29470;53.550;9.926;2022-09-09T18:53:28;5.97;;;4.25;;
43823;SDS011;29470;53.550;9.926;2022-09-09T18:58:31;7.93;;;6.20;;
43823;SDS011;29470;53.550;9.926;2022-09-09T19:03:38;17.70;;;11.73;;
43823;SDS011;29470;53.550;9.926;2022-09-09T19:08:44;10.40;;;6.55;;
43823;SDS011;29470;53.550;9.926;2022-09-09T19:13:54;7.38;;;4.68;;
43823;SDS011;29470;53.550;9.926;2022-09-09T19:18:58;13.10;;;5.40;;
43823;SDS011;29470;53.550;9.926;2022-09-09T19:24:04;7.70;;;5.63;;
43823;SDS011;29470;53.550;9.926;2022-09-09T19:29:10;9.88;;;5.88;;
43823;SDS011;29470;53.550;9.926;2022-09-09T19:34:17;21.75;;;12.52;;
43823;SDS011;29470;53.550;9.926;2022-09-09T19:39:22;13.55;;;7.75;;
43823;SDS011;29470;53.550;9.926;2022-09-09T19:44:25;18.58;;;13.63;;
43823;SDS011;29470;53.550;9.926;2022-09-09T19:49:28;15.50;;;10.93;;
43823;SDS011;29470;53.550;9.926;2022-09-09T19:54:32;16.60;;;8.57;;
43823;SDS011;29470;53.550;9.926;2022-09-09T19:59:35;13.45;;;8.65;;
43823;SDS011;29470;53.550;9.926;2022-09-09T20:04:39;24.08;;;16.05;;
43823;SDS011;29470;53.550;9.926;2022-09-09T20:09:43;14.73;;;8.77;;
43823;SDS011;29470;53.550;9.926;2022-09-09T20:14:46;19.25;;;11.32;;
43823;SDS011;29470;53.550;9.926;2022-09-09T20:19:49;23.38;;;13.73;;
43823;SDS011;29470;53.550;9.926;2022-09-09T20:24:53;13.18;;;10.15;;
43823;SDS011;29470;53.550;9.926;2022-09-09T20:29:56;16.67;;;10.95;;
43823;SDS011;29470;53.550;9.926;2022-09-09T20:34:59;13.30;;;9.00;;
43823;SDS011;29470;53.550;9.926;2022-09-09T20:40:04;11.20;;;8.48;;
43823;SDS011;29470;53.550;9.926;2022-09-09T20:45:07;12.82;;;7.72;;
43823;SDS011;29470;53.550;9.926;2022-09-09T20:50:16;12.60;;;7.40;;
43823;SDS011;29470;53.550;9.926;2022-09-09T20:55:20;14.27;;;8.15;;
43823;SDS011;29470;53.550;9.926;2022-09-09T21:00:23;11.30;;;7.85;;
43823;SDS011;29470;53.550;9.926;2022-09-09T21:05:26;9.23;;;6.72;;
43823;SDS011;29470;53.550;9.926;2022-09-09T21:10:31;14.98;;;7.18;;
43823;SDS011;29470;53.550;9.926;2022-09-09T21:15:34;12.80;;;7.20;;
43823;SDS011;29470;53.550;9.926;2022-09-09T21:20:38;11.23;;;7.20;;
43823;SDS011;29470;53.550;9.926;2022-09-09T21:25:45;11.80;;;7.32;;
43823;SDS011;29470;53.550;9.926;2022-09-09T21:30:49;10.73;;;6.63;;
43823;SDS011;29470;53.550;9.926;2022-09-09T21:36:00;10.67;;;7.00;;
43823;SDS011;29470;53.550;9.926;2022-09-09T21:41:06;9.60;;;6.47;;
43823;SDS011;29470;53.550;9.926;2022-09-09T21:46:11;9.55;;;6.20;;
43823;SDS011;29470;53.550;9.926;2022-09-09T21:51:16;10.57;;;6.70;;
43823;SDS011;29470;53.550;9.926;2022-09-09T21:56:21;8.43;;;6.03;;
43823;SDS011;29470;53.550;9.926;2022-09-09T22:01:23;7.72;;;4.65;;
43823;SDS011;29470;53.550;9.926;2022-09-09T22:06:27;6.57;;;4.63;;
43823;SDS011;29470;53.550;9.926;2022-09-09T22:11:31;6.53;;;3.83;;
43823;SDS011;29470;53.550;9.926;2022-09-09T22:16:35;5.65;;;3.47;;
43823;SDS011;29470;53.550;9.926;2022-09-09T22:21:38;4.45;;;3.10;;
43823;SDS011;29470;53.550;9.926;2022-09-09T22:26:42;5.00;;;3.05;;
43823;SDS011;29470;53.550;9.926;2022-09-09T22:31:45;4.25;;;3.30;;
43823;SDS011;29470;53.550;9.926;2022-09-09T22:36:48;6.05;;;3.33;;
43823;SDS011;29470;53.550;9.926;2022-09-09T22:41:52;4.80;;;3.10;;
43823;SDS011;29470;53.550;9.926;2022-09-09T22:46:56;9.65;;;5.32;;
43823;SDS011;29470;53.550;9.926;2022-09-09T22:51:59;4.88;;;3.28;;
43823;SDS011;29470;53.550;9.926;2022-09-09T22:57:03;4.97;;;3.90;;
43823;SDS011;29470;53.550;9.926;2022-09-09T23:02:06;6.05;;;4.47;;
43823;SDS011;29470;53.550;9.926;2022-09-09T23:07:10;7.25;;;4.40;;
43823;SDS011;29470;53.550;9.926;2022-09-09T23:12:14;5.82;;;4.55;;
43823;SDS011;29470;53.550;9.926;2022-09-09T23:17:20;6.32;;;4.70;;
43823;SDS011;29470;53.550;9.926;2022-09-09T23:22:23;9.30;;;5.03;;
43823;SDS011;29470;53.550;9.926;2022-09-09T23:27:28;7.43;;;5.45;;
43823;SDS011;29470;53.550;9.926;2022-09-09T23:32:31;7.47;;;5.00;;
43823;SDS011;29470;53.550;9.926;2022-09-09T23:37:34;9.50;;;5.15;;
43823;SDS011;29470;53.550;9.926;2022-09-09T23:42:38;9.60;;;5.47;;
43823;SDS011;29470;53.550;9.926;2022-09-09T23:47:41;10.15;;;5.47;;
43823;SDS011;29470;53.550;9.926;2022-09-09T23:52:44;6.05;;;5.03;;
43823;SDS011;29470;53.550;9.926;2022-09-09T23:57:48;7.50;;;5.40;;
